sensor_id;sensor_type;location;lat;lon;timestamp;pressure;altitude;pressure_sealevel;temperature;humidity
20971;BME280;10644;48.834;10.088;2023-09-08T00:01:15;96948.94;;;22.92;50.94
20971;BME280;10644;48.834;10.088;2023-09-08T00:03:43;96944.88;;;22.89;51.01
20971;BME280;10644;48.834;10.088;2023-09-08T00:06:08;96938.94;;;22.87;50.99
20971;BME280;10644;48.834;10.088;2023-09-08T00:08:34;96941.66;;;22.78;51.06
20971;BME280;10644;48.834;10.088;2023-09-08T00:10:59;96948.28;;;22.72;51.36
20971;BME280;10644;48.834;10.088;2023-09-08T00:13:24;96947.94;;;22.67;51.41
20971;BME280;10644;48.834;10.088;2023-09-08T00:15:50;96942.91;;;22.74;51.45
20971;BME280;10644;48.834;10.088;2023-09-08T00:18:20;96937.25;;;22.78;51.44
20971;BME280;10644;48.834;10.088;2023-09-08T00:20:45;96952.16;;;22.86;50.86
20971;BME280;10644;48.834;10.088;2023-09-08T00:23:11;96943.06;;;22.90;50.90
20971;BME280;10644;48.834;10.088;2023-09-08T00:25:38;96928.03;;;22.92;50.98
20971;BME280;10644;48.834;10.088;2023-09-08T00:28:06;96936.41;;;22.95;50.89
20971;BME280;10644;48.834;10.088;2023-09-08T00:30:31;96931.34;;;22.94;51.14
20971;BME280;10644;48.834;10.088;2023-09-08T00:32:57;96930.50;;;22.93;50.79
20971;BME280;10644;48.834;10.088;2023-09-08T00:35:24;96930.50;;;22.93;50.96
20971;BME280;10644;48.834;10.088;2023-09-08T00:37:50;96933.63;;;22.97;50.80
20971;BME280;10644;48.834;10.088;2023-09-08T00:40:15;96935.59;;;22.95;50.37
20971;BME280;10644;48.834;10.088;2023-09-08T00:42:41;96939.22;;;23.02;50.49
20971;BME280;10644;48.834;10.088;2023-09-08T00:45:06;96930.41;;;23.03;50.47
20971;BME280;10644;48.834;10.088;2023-09-08T00:47:34;96924.94;;;22.71;51.28
20971;BME280;10644;48.834;10.088;2023-09-08T00:50:02;96925.59;;;22.55;51.40
20971;BME280;10644;48.834;10.088;2023-09-08T00:52:27;96931.97;;;22.53;51.72
20971;BME280;10644;48.834;10.088;2023-09-08T00:54:57;96929.06;;;22.56;51.10
20971;BME280;10644;48.834;10.088;2023-09-08T00:57:23;96933.72;;;22.35;51.21
20971;BME280;10644;48.834;10.088;2023-09-08T00:59:48;96923.34;;;22.25;51.45
20971;BME280;10644;48.834;10.088;2023-09-08T01:02:14;96928.03;;;22.22;51.53
20971;BME280;10644;48.834;10.088;2023-09-08T01:04:42;96935.03;;;22.04;51.88
20971;BME280;10644;48.834;10.088;2023-09-08T01:07:09;96931.00;;;21.92;52.19
20971;BME280;10644;48.834;10.088;2023-09-08T01:09:36;96942.94;;;21.94;52.15
20971;BME280;10644;48.834;10.088;2023-09-08T01:12:07;96933.69;;;22.00;51.79
20971;BME280;10644;48.834;10.088;2023-09-08T01:14:32;96940.69;;;21.99;51.92
20971;BME280;10644;48.834;10.088;2023-09-08T01:16:58;96928.22;;;21.93;51.73
20971;BME280;10644;48.834;10.088;2023-09-08T01:19:23;96941.56;;;21.90;52.17
20971;BME280;10644;48.834;10.088;2023-09-08T01:22:14;96937.50;;;22.05;51.38
20971;BME280;10644;48.834;10.088;2023-09-08T01:25:25;96936.75;;;22.13;51.17
20971;BME280;10644;48.834;10.088;2023-09-08T01:27:52;96936.81;;;22.03;51.56
20971;BME280;10644;48.834;10.088;2023-09-08T01:30:18;96934.19;;;22.03;51.87
20971;BME280;10644;48.834;10.088;2023-09-08T01:32:47;96930.47;;;22.06;51.69
20971;BME280;10644;48.834;10.088;2023-09-08T01:35:13;96932.81;;;22.09;51.65
20971;BME280;10644;48.834;10.088;2023-09-08T01:37:44;96926.22;;;22.05;51.55
20971;BME280;10644;48.834;10.088;2023-09-08T01:40:10;96927.88;;;22.06;51.48
20971;BME280;10644;48.834;10.088;2023-09-08T01:42:36;96924.28;;;22.07;51.46
20971;BME280;10644;48.834;10.088;2023-09-08T01:45:02;96926.91;;;22.07;51.44
20971;BME280;10644;48.834;10.088;2023-09-08T01:47:29;96918.91;;;21.91;51.78
20971;BME280;10644;48.834;10.088;2023-09-08T01:49:54;96919.47;;;21.85;51.75
20971;BME280;10644;48.834;10.088;2023-09-08T01:52:20;96915.41;;;21.73;51.59
20971;BME280;10644;48.834;10.088;2023-09-08T01:54:45;96920.63;;;21.73;52.07
20971;BME280;10644;48.834;10.088;2023-09-08T01:57:10;96925.56;;;21.76;52.05
20971;BME280;10644;48.834;10.088;2023-09-08T01:59:36;96915.94;;;21.76;52.24
20971;BME280;10644;48.834;10.088;2023-09-08T02:02:02;96910.91;;;21.75;52.10
20971;BME280;10644;48.834;10.088;2023-09-08T02:04:28;96910.91;;;21.75;52.16
20971;BME280;10644;48.834;10.088;2023-09-08T02:06:54;96921.41;;;21.83;51.82
20971;BME280;10644;48.834;10.088;2023-09-08T02:09:22;96917.75;;;21.76;51.76
20971;BME280;10644;48.834;10.088;2023-09-08T02:11:47;96931.75;;;21.75;51.97
20971;BME280;10644;48.834;10.088;2023-09-08T02:14:12;96929.00;;;21.67;51.85
20971;BME280;10644;48.834;10.088;2023-09-08T02:16:40;96925.59;;;21.66;51.89
20971;BME280;10644;48.834;10.088;2023-09-08T02:19:06;96917.06;;;21.64;51.60
20971;BME280;10644;48.834;10.088;2023-09-08T02:21:31;96921.91;;;21.59;51.46
20971;BME280;10644;48.834;10.088;2023-09-08T02:23:56;96929.97;;;21.66;51.82
20971;BME280;10644;48.834;10.088;2023-09-08T02:26:22;96928.91;;;21.59;51.78
20971;BME280;10644;48.834;10.088;2023-09-08T02:28:47;96919.47;;;21.58;51.59
20971;BME280;10644;48.834;10.088;2023-09-08T02:31:12;96921.75;;;21.61;51.81
20971;BME280;10644;48.834;10.088;2023-09-08T02:33:40;96913.81;;;21.62;51.34
20971;BME280;10644;48.834;10.088;2023-09-08T02:36:07;96925.34;;;21.60;51.72
20971;BME280;10644;48.834;10.088;2023-09-08T02:38:32;96940.56;;;21.64;51.96
20971;BME280;10644;48.834;10.088;2023-09-08T02:40:58;96924.94;;;21.55;51.75
20971;BME280;10644;48.834;10.088;2023-09-08T02:43:23;96921.28;;;21.48;52.04
20971;BME280;10644;48.834;10.088;2023-09-08T02:45:49;96927.28;;;21.48;52.17
20971;BME280;10644;48.834;10.088;2023-09-08T02:48:38;96934.22;;;21.30;52.56
20971;BME280;10644;48.834;10.088;2023-09-08T02:51:06;96920.44;;;21.11;53.08
20971;BME280;10644;48.834;10.088;2023-09-08T02:53:38;96935.78;;;21.14;53.13
20971;BME280;10644;48.834;10.088;2023-09-08T02:56:03;96931.00;;;21.19;53.06
20971;BME280;10644;48.834;10.088;2023-09-08T02:58:39;96922.19;;;21.20;52.36
20971;BME280;10644;48.834;10.088;2023-09-08T03:01:15;96920.03;;;21.06;52.25
20971;BME280;10644;48.834;10.088;2023-09-08T03:03:46;96913.88;;;20.97;52.67
20971;BME280;10644;48.834;10.088;2023-09-08T03:06:19;96919.50;;;20.93;52.67
20971;BME280;10644;48.834;10.088;2023-09-08T03:08:53;96924.06;;;20.91;52.33
20971;BME280;10644;48.834;10.088;2023-09-08T03:11:22;96920.03;;;20.87;52.71
20971;BME280;10644;48.834;10.088;2023-09-08T03:13:56;96935.41;;;20.99;52.43
20971;BME280;10644;48.834;10.088;2023-09-08T03:16:24;96915.94;;;20.94;52.53
20971;BME280;10644;48.834;10.088;2023-09-08T03:19:43;96910.19;;;20.90;52.44
20971;BME280;10644;48.834;10.088;2023-09-08T03:22:07;96925.25;;;20.96;51.92
20971;BME280;10644;48.834;10.088;2023-09-08T03:24:48;96927.47;;;20.91;52.44
20971;BME280;10644;48.834;10.088;2023-09-08T03:27:17;96909.09;;;20.74;52.47
20971;BME280;10644;48.834;10.088;2023-09-08T03:29:55;96892.09;;;20.70;52.63
20971;BME280;10644;48.834;10.088;2023-09-08T03:32:29;96911.81;;;20.82;52.87
20971;BME280;10644;48.834;10.088;2023-09-08T03:34:57;96909.53;;;20.88;52.71
20971;BME280;10644;48.834;10.088;2023-09-08T03:37:30;96910.72;;;20.94;52.81
20971;BME280;10644;48.834;10.088;2023-09-08T03:39:59;96901.94;;;20.95;52.94
20971;BME280;10644;48.834;10.088;2023-09-08T03:42:24;96911.28;;;20.97;53.13
20971;BME280;10644;48.834;10.088;2023-09-08T03:44:52;96905.53;;;20.94;53.71
20971;BME280;10644;48.834;10.088;2023-09-08T03:47:38;96894.56;;;20.90;53.90
20971;BME280;10644;48.834;10.088;2023-09-08T03:50:27;96899.78;;;20.81;54.86
20971;BME280;10644;48.834;10.088;2023-09-08T03:53:01;96896.91;;;20.55;55.55
20971;BME280;10644;48.834;10.088;2023-09-08T03:55:32;96888.00;;;20.58;55.80
20971;BME280;10644;48.834;10.088;2023-09-08T03:58:01;96896.91;;;20.65;55.56
20971;BME280;10644;48.834;10.088;2023-09-08T04:03:32;96894.59;;;20.62;55.92
20971;BME280;10644;48.834;10.088;2023-09-08T04:06:03;96913.22;;;20.76;55.56
20971;BME280;10644;48.834;10.088;2023-09-08T04:08:31;96921.69;;;20.78;55.95
20971;BME280;10644;48.834;10.088;2023-09-08T04:10:59;96922.66;;;20.77;55.83
20971;BME280;10644;48.834;10.088;2023-09-08T04:13:25;96912.66;;;20.63;55.86
20971;BME280;10644;48.834;10.088;2023-09-08T04:15:50;96905.69;;;20.54;55.82
20971;BME280;10644;48.834;10.088;2023-09-08T04:18:30;96901.72;;;20.60;56.01
20971;BME280;10644;48.834;10.088;2023-09-08T04:21:06;96909.09;;;20.55;56.02
20971;BME280;10644;48.834;10.088;2023-09-08T04:23:37;96914.44;;;20.44;56.31
20971;BME280;10644;48.834;10.088;2023-09-08T04:26:03;96921.47;;;20.34;57.11
20971;BME280;10644;48.834;10.088;2023-09-08T04:28:36;96906.09;;;20.31;56.58
20971;BME280;10644;48.834;10.088;2023-09-08T04:31:13;96902.28;;;20.35;56.53
20971;BME280;10644;48.834;10.088;2023-09-08T04:33:47;96902.28;;;20.44;56.22
20971;BME280;10644;48.834;10.088;2023-09-08T04:36:27;96913.91;;;20.50;56.60
20971;BME280;10644;48.834;10.088;2023-09-08T04:38:52;96911.03;;;20.53;56.16
20971;BME280;10644;48.834;10.088;2023-09-08T04:41:18;96904.19;;;20.52;56.50
20971;BME280;10644;48.834;10.088;2023-09-08T04:43:55;96902.53;;;20.60;56.48
20971;BME280;10644;48.834;10.088;2023-09-08T04:46:47;96912.41;;;20.57;56.13
20971;BME280;10644;48.834;10.088;2023-09-08T04:49:30;96908.03;;;20.48;56.20
20971;BME280;10644;48.834;10.088;2023-09-08T04:52:04;96907.03;;;20.58;56.48
20971;BME280;10644;48.834;10.088;2023-09-08T04:54:37;96913.91;;;20.69;56.08
20971;BME280;10644;48.834;10.088;2023-09-08T04:57:03;96906.09;;;20.69;56.12
20971;BME280;10644;48.834;10.088;2023-09-08T04:59:30;96908.25;;;20.83;55.74
20971;BME280;10644;48.834;10.088;2023-09-08T05:01:57;96894.00;;;20.87;55.60
20971;BME280;10644;48.834;10.088;2023-09-08T05:04:27;96908.53;;;20.99;55.31
20971;BME280;10644;48.834;10.088;2023-09-08T05:06:55;96901.41;;;21.01;55.53
20971;BME280;10644;48.834;10.088;2023-09-08T05:12:15;96913.63;;;20.91;55.45
20971;BME280;10644;48.834;10.088;2023-09-08T05:14:43;96914.03;;;20.77;55.62
20971;BME280;10644;48.834;10.088;2023-09-08T05:17:11;96921.19;;;20.65;56.00
20971;BME280;10644;48.834;10.088;2023-09-08T05:19:39;96929.66;;;20.58;56.21
20971;BME280;10644;48.834;10.088;2023-09-08T05:22:06;96924.72;;;20.55;56.31
20971;BME280;10644;48.834;10.088;2023-09-08T05:24:34;96928.16;;;20.46;56.59
20971;BME280;10644;48.834;10.088;2023-09-08T05:26:59;96920.06;;;20.30;57.05
20971;BME280;10644;48.834;10.088;2023-09-08T05:29:25;96928.16;;;20.46;56.98
20971;BME280;10644;48.834;10.088;2023-09-08T05:31:51;96924.88;;;20.53;56.65
20971;BME280;10644;48.834;10.088;2023-09-08T05:34:19;96933.50;;;20.54;57.00
20971;BME280;10644;48.834;10.088;2023-09-08T05:36:44;96928.56;;;20.60;56.68
20971;BME280;10644;48.834;10.088;2023-09-08T05:39:10;96940.63;;;20.52;56.98
20971;BME280;10644;48.834;10.088;2023-09-08T05:41:38;96940.34;;;20.36;57.39
20971;BME280;10644;48.834;10.088;2023-09-08T05:44:04;96943.50;;;20.49;57.70
20971;BME280;10644;48.834;10.088;2023-09-08T05:46:32;96948.31;;;20.72;57.49
20971;BME280;10644;48.834;10.088;2023-09-08T05:49:05;96946.00;;;20.88;57.04
20971;BME280;10644;48.834;10.088;2023-09-08T05:51:44;96943.34;;;21.07;56.63
20971;BME280;10644;48.834;10.088;2023-09-08T05:54:15;96955.16;;;21.02;56.72
20971;BME280;10644;48.834;10.088;2023-09-08T05:56:43;96951.06;;;20.99;56.54
20971;BME280;10644;48.834;10.088;2023-09-08T05:59:11;96953.22;;;20.75;57.06
20971;BME280;10644;48.834;10.088;2023-09-08T06:01:39;96968.59;;;20.69;57.63
20971;BME280;10644;48.834;10.088;2023-09-08T06:04:04;96939.00;;;20.60;57.90
20971;BME280;10644;48.834;10.088;2023-09-08T06:06:32;96951.00;;;20.14;59.50
20971;BME280;10644;48.834;10.088;2023-09-08T06:08:58;96948.41;;;20.14;59.29
20971;BME280;10644;48.834;10.088;2023-09-08T06:11:33;96964.19;;;20.41;59.24
20971;BME280;10644;48.834;10.088;2023-09-08T06:14:12;96941.59;;;20.51;58.77
20971;BME280;10644;48.834;10.088;2023-09-08T06:16:40;96933.66;;;20.62;58.53
20971;BME280;10644;48.834;10.088;2023-09-08T06:19:09;96936.25;;;20.71;57.92
20971;BME280;10644;48.834;10.088;2023-09-08T06:21:34;96928.03;;;20.66;58.05
20971;BME280;10644;48.834;10.088;2023-09-08T06:24:00;96940.78;;;20.88;57.68
20971;BME280;10644;48.834;10.088;2023-09-08T06:26:37;96937.19;;;20.99;57.17
20971;BME280;10644;48.834;10.088;2023-09-08T06:29:03;96937.13;;;21.27;56.48
20971;BME280;10644;48.834;10.088;2023-09-08T06:31:31;96930.13;;;21.28;56.75
20971;BME280;10644;48.834;10.088;2023-09-08T06:33:57;96943.78;;;21.49;56.33
20971;BME280;10644;48.834;10.088;2023-09-08T06:36:25;96932.63;;;21.56;56.03
20971;BME280;10644;48.834;10.088;2023-09-08T06:38:52;96922.47;;;21.63;55.91
20971;BME280;10644;48.834;10.088;2023-09-08T06:41:18;96932.44;;;21.77;55.08
20971;BME280;10644;48.834;10.088;2023-09-08T06:43:44;96932.25;;;21.88;55.09
20971;BME280;10644;48.834;10.088;2023-09-08T06:46:14;96933.09;;;21.79;55.04
20971;BME280;10644;48.834;10.088;2023-09-08T06:48:40;96923.78;;;21.76;55.37
20971;BME280;10644;48.834;10.088;2023-09-08T06:51:05;96928.53;;;21.90;55.16
20971;BME280;10644;48.834;10.088;2023-09-08T06:53:30;96925.00;;;21.82;55.39
20971;BME280;10644;48.834;10.088;2023-09-08T06:55:56;96922.00;;;21.77;55.64
20971;BME280;10644;48.834;10.088;2023-09-08T06:58:21;96928.19;;;22.03;55.07
20971;BME280;10644;48.834;10.088;2023-09-08T07:00:47;96931.44;;;22.05;55.11
20971;BME280;10644;48.834;10.088;2023-09-08T07:03:14;96936.09;;;22.11;55.01
20971;BME280;10644;48.834;10.088;2023-09-08T07:05:40;96934.63;;;22.26;54.63
20971;BME280;10644;48.834;10.088;2023-09-08T07:08:05;96940.88;;;22.33;54.62
20971;BME280;10644;48.834;10.088;2023-09-08T07:10:31;96937.22;;;22.53;54.29
20971;BME280;10644;48.834;10.088;2023-09-08T07:12:59;96936.66;;;22.49;53.93
20971;BME280;10644;48.834;10.088;2023-09-08T07:15:24;96935.91;;;22.57;54.19
20971;BME280;10644;48.834;10.088;2023-09-08T07:17:52;96934.88;;;22.67;53.66
20971;BME280;10644;48.834;10.088;2023-09-08T07:20:17;96930.16;;;22.71;53.59
20971;BME280;10644;48.834;10.088;2023-09-08T07:22:43;96936.84;;;22.91;53.66
20971;BME280;10644;48.834;10.088;2023-09-08T07:25:10;96934.78;;;22.77;53.60
20971;BME280;10644;48.834;10.088;2023-09-08T07:27:36;96930.50;;;22.93;53.12
20971;BME280;10644;48.834;10.088;2023-09-08T07:30:05;96922.13;;;23.07;53.14
20971;BME280;10644;48.834;10.088;2023-09-08T07:32:31;96927.03;;;23.10;53.01
20971;BME280;10644;48.834;10.088;2023-09-08T07:34:56;96927.84;;;23.11;52.89
20971;BME280;10644;48.834;10.088;2023-09-08T07:37:22;96921.09;;;23.26;52.58
20971;BME280;10644;48.834;10.088;2023-09-08T07:39:51;96926.44;;;23.42;52.35
20971;BME280;10644;48.834;10.088;2023-09-08T07:42:18;96918.81;;;23.56;52.40
20971;BME280;10644;48.834;10.088;2023-09-08T07:44:47;96924.81;;;23.74;51.97
20971;BME280;10644;48.834;10.088;2023-09-08T07:47:12;96920.22;;;23.76;52.21
20971;BME280;10644;48.834;10.088;2023-09-08T07:49:38;96921.13;;;23.93;51.63
20971;BME280;10644;48.834;10.088;2023-09-08T07:52:03;96913.63;;;23.98;51.30
20971;BME280;10644;48.834;10.088;2023-09-08T07:54:29;96919.19;;;23.95;51.88
20971;BME280;10644;48.834;10.088;2023-09-08T07:56:55;96921.47;;;23.90;51.69
20971;BME280;10644;48.834;10.088;2023-09-08T07:59:20;96920.53;;;24.15;51.60
20971;BME280;10644;48.834;10.088;2023-09-08T08:01:46;96915.19;;;24.24;51.23
20971;BME280;10644;48.834;10.088;2023-09-08T08:04:21;96933.38;;;24.42;51.51
20971;BME280;10644;48.834;10.088;2023-09-08T08:07:25;96916.06;;;24.73;50.95
20971;BME280;10644;48.834;10.088;2023-09-08T08:10:37;96919.34;;;24.91;50.55
20971;BME280;10644;48.834;10.088;2023-09-08T08:20:09;96902.63;;;24.84;49.98
20971;BME280;10644;48.834;10.088;2023-09-08T08:22:47;96912.44;;;24.98;50.23
20971;BME280;10644;48.834;10.088;2023-09-08T08:25:28;96910.81;;;24.89;50.12
20971;BME280;10644;48.834;10.088;2023-09-08T08:28:20;96909.50;;;24.69;50.81
20971;BME280;10644;48.834;10.088;2023-09-08T08:31:16;96911.63;;;24.89;50.40
20971;BME280;10644;48.834;10.088;2023-09-08T08:34:26;96911.59;;;25.21;50.08
20971;BME280;10644;48.834;10.088;2023-09-08T08:37:27;96910.25;;;25.49;49.60
20971;BME280;10644;48.834;10.088;2023-09-08T08:40:40;96908.50;;;25.26;49.68
20971;BME280;10644;48.834;10.088;2023-09-08T08:43:28;96905.84;;;25.42;49.81
20971;BME280;10644;48.834;10.088;2023-09-08T08:49:45;96899.06;;;25.55;49.34
20971;BME280;10644;48.834;10.088;2023-09-08T08:56:01;96917.88;;;25.67;49.73
20971;BME280;10644;48.834;10.088;2023-09-08T08:58:54;96893.47;;;26.05;49.12
20971;BME280;10644;48.834;10.088;2023-09-08T09:01:37;96910.03;;;26.36;48.60
20971;BME280;10644;48.834;10.088;2023-09-08T09:04:42;96907.34;;;26.44;48.03
20971;BME280;10644;48.834;10.088;2023-09-08T09:07:40;96898.47;;;26.45;48.09
20971;BME280;10644;48.834;10.088;2023-09-08T09:14:11;96894.28;;;26.81;47.10
20971;BME280;10644;48.834;10.088;2023-09-08T09:16:58;96892.16;;;26.76;47.88
20971;BME280;10644;48.834;10.088;2023-09-08T09:22:56;96877.34;;;26.98;46.84
20971;BME280;10644;48.834;10.088;2023-09-08T09:26:02;96898.38;;;27.20;46.47
20971;BME280;10644;48.834;10.088;2023-09-08T09:50:12;96889.59;;;28.21;45.58
20971;BME280;10644;48.834;10.088;2023-09-08T09:53:14;96880.41;;;28.53;44.64
20971;BME280;10644;48.834;10.088;2023-09-08T09:56:21;96898.16;;;28.44;44.81
20971;BME280;10644;48.834;10.088;2023-09-08T10:20:28;96864.50;;;30.63;39.36
20971;BME280;10644;48.834;10.088;2023-09-08T10:26:11;96863.34;;;31.05;39.56
20971;BME280;10644;48.834;10.088;2023-09-08T10:28:39;96866.59;;;31.33;38.97
20971;BME280;10644;48.834;10.088;2023-09-08T10:31:05;96867.38;;;31.46;38.42
20971;BME280;10644;48.834;10.088;2023-09-08T10:33:34;96862.59;;;31.68;38.20
20971;BME280;10644;48.834;10.088;2023-09-08T10:36:02;96865.59;;;31.91;37.59
20971;BME280;10644;48.834;10.088;2023-09-08T10:38:57;96866.13;;;32.12;38.34
20971;BME280;10644;48.834;10.088;2023-09-08T10:45:06;96859.28;;;32.36;36.82
20971;BME280;10644;48.834;10.088;2023-09-08T10:50:39;96858.72;;;32.58;36.89
20971;BME280;10644;48.834;10.088;2023-09-08T10:53:25;96852.84;;;32.81;36.32
20971;BME280;10644;48.834;10.088;2023-09-08T10:55:58;96861.91;;;32.98;35.64
20971;BME280;10644;48.834;10.088;2023-09-08T10:58:42;96841.28;;;33.00;36.30
20971;BME280;10644;48.834;10.088;2023-09-08T11:01:18;96834.94;;;32.70;35.70
20971;BME280;10644;48.834;10.088;2023-09-08T11:09:52;96846.50;;;32.57;35.66
20971;BME280;10644;48.834;10.088;2023-09-08T11:12:18;96839.66;;;32.37;35.74
20971;BME280;10644;48.834;10.088;2023-09-08T11:14:43;96849.22;;;32.75;35.37
20971;BME280;10644;48.834;10.088;2023-09-08T11:20:38;96833.44;;;32.56;35.99
20971;BME280;10644;48.834;10.088;2023-09-08T11:23:14;96853.28;;;32.47;35.34
20971;BME280;10644;48.834;10.088;2023-09-08T11:44:52;96839.25;;;34.10;34.35
20971;BME280;10644;48.834;10.088;2023-09-08T11:47:46;96836.00;;;33.72;34.96
20971;BME280;10644;48.834;10.088;2023-09-08T11:50:18;96844.03;;;33.90;34.32
20971;BME280;10644;48.834;10.088;2023-09-08T11:52:53;96835.91;;;34.14;34.25
20971;BME280;10644;48.834;10.088;2023-09-08T11:55:50;96841.91;;;34.10;34.51
20971;BME280;10644;48.834;10.088;2023-09-08T11:58:32;96821.13;;;34.48;33.72
20971;BME280;10644;48.834;10.088;2023-09-08T12:01:09;96832.03;;;34.58;33.32
20971;BME280;10644;48.834;10.088;2023-09-08T12:04:19;96823.31;;;33.92;34.70
20971;BME280;10644;48.834;10.088;2023-09-08T12:07:06;96832.44;;;34.14;34.57
20971;BME280;10644;48.834;10.088;2023-09-08T12:09:42;96822.28;;;34.22;33.53
20971;BME280;10644;48.834;10.088;2023-09-08T12:12:47;96821.19;;;33.82;33.81
20971;BME280;10644;48.834;10.088;2023-09-08T12:22:52;96821.31;;;34.35;35.39
20971;BME280;10644;48.834;10.088;2023-09-08T12:25:21;96825.16;;;34.21;35.43
20971;BME280;10644;48.834;10.088;2023-09-08T12:28:12;96826.16;;;34.08;35.56
20971;BME280;10644;48.834;10.088;2023-09-08T12:34:08;96802.94;;;33.86;36.31
20971;BME280;10644;48.834;10.088;2023-09-08T12:36:36;96818.56;;;34.12;35.91
20971;BME280;10644;48.834;10.088;2023-09-08T12:39:27;96824.19;;;34.04;36.08
20971;BME280;10644;48.834;10.088;2023-09-08T12:42:07;96811.59;;;34.29;36.06
20971;BME280;10644;48.834;10.088;2023-09-08T12:44:42;96813.13;;;33.89;36.08
20971;BME280;10644;48.834;10.088;2023-09-08T12:47:18;96807.31;;;34.10;35.97
20971;BME280;10644;48.834;10.088;2023-09-08T12:50:06;96808.16;;;34.22;36.17
20971;BME280;10644;48.834;10.088;2023-09-08T12:52:37;96805.34;;;34.17;35.74
20971;BME280;10644;48.834;10.088;2023-09-08T12:55:19;96800.72;;;34.42;35.44
20971;BME280;10644;48.834;10.088;2023-09-08T12:57:55;96812.59;;;34.69;35.64
20971;BME280;10644;48.834;10.088;2023-09-08T13:00:36;96805.59;;;34.45;36.00
20971;BME280;10644;48.834;10.088;2023-09-08T13:03:17;96808.16;;;34.51;35.57
20971;BME280;10644;48.834;10.088;2023-09-08T13:06:01;96802.59;;;34.53;35.62
20971;BME280;10644;48.834;10.088;2023-09-08T13:08:34;96791.94;;;34.53;35.67
20971;BME280;10644;48.834;10.088;2023-09-08T13:11:10;96795.66;;;34.52;35.76
20971;BME280;10644;48.834;10.088;2023-09-08T13:13:40;96808.25;;;34.45;35.10
20971;BME280;10644;48.834;10.088;2023-09-08T13:16:15;96792.16;;;33.63;36.50
20971;BME280;10644;48.834;10.088;2023-09-08T13:18:43;96800.03;;;33.69;36.88
20971;BME280;10644;48.834;10.088;2023-09-08T13:21:19;96789.31;;;33.76;36.52
20971;BME280;10644;48.834;10.088;2023-09-08T13:24:10;96790.28;;;33.63;37.23
20971;BME280;10644;48.834;10.088;2023-09-08T13:26:55;96791.88;;;34.00;35.92
20971;BME280;10644;48.834;10.088;2023-09-08T13:29:21;96776.47;;;33.91;36.60
20971;BME280;10644;48.834;10.088;2023-09-08T13:32:00;96765.69;;;34.15;36.02
20971;BME280;10644;48.834;10.088;2023-09-08T13:34:30;96783.34;;;33.98;36.68
20971;BME280;10644;48.834;10.088;2023-09-08T13:37:22;96772.22;;;34.31;36.01
20971;BME280;10644;48.834;10.088;2023-09-08T13:40:00;96779.44;;;34.42;35.48
20971;BME280;10644;48.834;10.088;2023-09-08T13:45:35;96763.38;;;34.71;34.76
20971;BME280;10644;48.834;10.088;2023-09-08T13:48:11;96772.78;;;34.85;35.45
20971;BME280;10644;48.834;10.088;2023-09-08T13:50:49;96762.56;;;34.71;35.69
20971;BME280;10644;48.834;10.088;2023-09-08T13:53:32;96753.50;;;34.49;35.04
20971;BME280;10644;48.834;10.088;2023-09-08T13:55:58;96759.06;;;34.59;35.49
20971;BME280;10644;48.834;10.088;2023-09-08T14:01:22;96754.72;;;34.76;36.08
20971;BME280;10644;48.834;10.088;2023-09-08T14:03:58;96758.16;;;34.65;36.51
20971;BME280;10644;48.834;10.088;2023-09-08T14:06:34;96753.88;;;34.64;36.65
20971;BME280;10644;48.834;10.088;2023-09-08T14:09:03;96742.50;;;34.68;36.33
20971;BME280;10644;48.834;10.088;2023-09-08T14:11:29;96739.91;;;34.80;37.02
20971;BME280;10644;48.834;10.088;2023-09-08T14:13:57;96759.84;;;33.30;37.10
20971;BME280;10644;48.834;10.088;2023-09-08T14:16:22;96754.19;;;33.20;36.24
20971;BME280;10644;48.834;10.088;2023-09-08T14:18:51;96758.22;;;33.76;35.56
20971;BME280;10644;48.834;10.088;2023-09-08T14:21:20;96758.06;;;33.89;33.97
20971;BME280;10644;48.834;10.088;2023-09-08T14:23:51;96763.31;;;33.96;33.88
20971;BME280;10644;48.834;10.088;2023-09-08T14:26:16;96758.91;;;34.31;33.30
20971;BME280;10644;48.834;10.088;2023-09-08T14:28:48;96744.59;;;34.55;32.76
20971;BME280;10644;48.834;10.088;2023-09-08T14:31:50;96750.41;;;34.75;33.09
20971;BME280;10644;48.834;10.088;2023-09-08T14:34:18;96747.28;;;35.01;32.02
20971;BME280;10644;48.834;10.088;2023-09-08T14:36:44;96750.84;;;34.60;32.29
20971;BME280;10644;48.834;10.088;2023-09-08T14:39:19;96747.28;;;34.78;32.70
20971;BME280;10644;48.834;10.088;2023-09-08T14:42:14;96742.72;;;35.13;32.30
20971;BME280;10644;48.834;10.088;2023-09-08T14:48:28;96748.44;;;35.28;31.00
20971;BME280;10644;48.834;10.088;2023-09-08T14:51:21;96755.69;;;35.44;31.13
20971;BME280;10644;48.834;10.088;2023-09-08T14:53:53;96744.84;;;35.62;31.02
20971;BME280;10644;48.834;10.088;2023-09-08T14:56:39;96739.34;;;35.80;31.66
20971;BME280;10644;48.834;10.088;2023-09-08T14:59:04;96744.31;;;35.88;32.14
20971;BME280;10644;48.834;10.088;2023-09-08T15:01:30;96754.13;;;35.99;32.29
20971;BME280;10644;48.834;10.088;2023-09-08T15:04:00;96749.47;;;35.27;33.19
20971;BME280;10644;48.834;10.088;2023-09-08T15:06:28;96745.53;;;34.72;34.42
20971;BME280;10644;48.834;10.088;2023-09-08T15:08:53;96746.13;;;34.74;34.17
20971;BME280;10644;48.834;10.088;2023-09-08T15:11:26;96750.56;;;34.80;33.97
20971;BME280;10644;48.834;10.088;2023-09-08T15:13:54;96747.16;;;34.96;34.01
20971;BME280;10644;48.834;10.088;2023-09-08T15:16:27;96766.94;;;34.13;35.45
20971;BME280;10644;48.834;10.088;2023-09-08T15:18:54;96752.69;;;33.78;35.92
20971;BME280;10644;48.834;10.088;2023-09-08T15:21:20;96745.44;;;33.37;36.87
20971;BME280;10644;48.834;10.088;2023-09-08T15:23:51;96750.25;;;33.29;37.00
20971;BME280;10644;48.834;10.088;2023-09-08T15:26:19;96751.22;;;33.10;36.48
20971;BME280;10644;48.834;10.088;2023-09-08T15:28:44;96749.50;;;32.79;37.39